sensor_id;sensor_type;location;lat;lon;timestamp;pressure;altitude;pressure_sealevel;temperature;humidity
44027;BME280;29696;55.698;37.460;2023-05-10T00:01:55;100540.16;;;8.73;37.12
44027;BME280;29696;55.698;37.460;2023-05-10T00:04:22;100529.09;;;8.67;36.73
44027;BME280;29696;55.698;37.460;2023-05-10T00:06:48;100541.22;;;8.70;36.60
44027;BME280;29696;55.698;37.460;2023-05-10T00:09:14;100529.94;;;8.68;37.50
44027;BME280;29696;55.698;37.460;2023-05-10T00:11:41;100538.13;;;8.63;38.49
44027;BME280;29696;55.698;37.460;2023-05-10T00:14:08;100528.75;;;8.59;37.96
44027;BME280;29696;55.698;37.460;2023-05-10T00:16:34;100538.44;;;8.59;38.27
44027;BME280;29696;55.698;37.460;2023-05-10T00:19:01;100536.72;;;8.58;37.73
44027;BME280;29696;55.698;37.460;2023-05-10T00:21:27;100531.38;;;8.59;36.66
44027;BME280;29696;55.698;37.460;2023-05-10T00:23:54;100540.75;;;8.63;36.37
44027;BME280;29696;55.698;37.460;2023-05-10T00:26:21;100536.13;;;8.67;35.80
44027;BME280;29696;55.698;37.460;2023-05-10T00:28:51;100535.09;;;8.69;35.88
44027;BME280;29696;55.698;37.460;2023-05-10T00:31:18;100548.38;;;8.68;37.89
44027;BME280;29696;55.698;37.460;2023-05-10T00:33:44;100546.88;;;8.64;38.38
44027;BME280;29696;55.698;37.460;2023-05-10T00:36:11;100540.31;;;8.57;38.83
44027;BME280;29696;55.698;37.460;2023-05-10T00:38:38;100541.38;;;8.54;37.31
44027;BME280;29696;55.698;37.460;2023-05-10T00:41:04;100531.78;;;8.53;37.48
44027;BME280;29696;55.698;37.460;2023-05-10T00:43:33;100536.22;;;8.53;38.44
44027;BME280;29696;55.698;37.460;2023-05-10T00:45:59;100534.63;;;8.50;38.22
44027;BME280;29696;55.698;37.460;2023-05-10T00:48:26;100545.16;;;8.50;38.49
44027;BME280;29696;55.698;37.460;2023-05-10T00:50:54;100546.06;;;8.49;37.74
44027;BME280;29696;55.698;37.460;2023-05-10T00:53:21;100534.81;;;8.47;37.16
44027;BME280;29696;55.698;37.460;2023-05-10T00:55:48;100550.09;;;8.55;36.59
44027;BME280;29696;55.698;37.460;2023-05-10T00:58:14;100543.81;;;8.57;35.87
44027;BME280;29696;55.698;37.460;2023-05-10T01:00:42;100543.59;;;8.60;36.14
44027;BME280;29696;55.698;37.460;2023-05-10T01:03:10;100538.34;;;8.60;35.93
44027;BME280;29696;55.698;37.460;2023-05-10T01:05:37;100536.44;;;8.62;35.94
44027;BME280;29696;55.698;37.460;2023-05-10T01:08:04;100538.06;;;8.65;35.85
44027;BME280;29696;55.698;37.460;2023-05-10T01:10:31;100537.19;;;8.64;36.65
44027;BME280;29696;55.698;37.460;2023-05-10T01:12:59;100532.09;;;8.61;37.01
44027;BME280;29696;55.698;37.460;2023-05-10T01:15:26;100533.38;;;8.56;36.48
44027;BME280;29696;55.698;37.460;2023-05-10T01:17:53;100532.31;;;8.58;36.51
44027;BME280;29696;55.698;37.460;2023-05-10T01:20:20;100528.84;;;8.58;36.32
44027;BME280;29696;55.698;37.460;2023-05-10T01:23:20;100545.44;;;8.73;36.42
44027;BME280;29696;55.698;37.460;2023-05-10T01:29:46;100534.91;;;8.73;35.91
44027;BME280;29696;55.698;37.460;2023-05-10T01:35:41;100536.13;;;8.67;37.78
44027;BME280;29696;55.698;37.460;2023-05-10T01:38:20;100530.44;;;8.60;37.62
44027;BME280;29696;55.698;37.460;2023-05-10T01:47:23;100533.06;;;8.60;38.69
44027;BME280;29696;55.698;37.460;2023-05-10T01:49:53;100531.91;;;8.64;37.60
44027;BME280;29696;55.698;37.460;2023-05-10T01:52:30;100535.66;;;8.48;39.50
44027;BME280;29696;55.698;37.460;2023-05-10T01:55:02;100527.19;;;8.42;37.13
44027;BME280;29696;55.698;37.460;2023-05-10T01:57:35;100534.06;;;8.45;36.68
44027;BME280;29696;55.698;37.460;2023-05-10T02:00:06;100529.75;;;8.44;38.67
44027;BME280;29696;55.698;37.460;2023-05-10T02:02:47;100533.31;;;8.43;40.39
44027;BME280;29696;55.698;37.460;2023-05-10T02:05:16;100527.56;;;8.36;40.55
44027;BME280;29696;55.698;37.460;2023-05-10T02:07:43;100524.84;;;8.38;39.96
44027;BME280;29696;55.698;37.460;2023-05-10T02:10:11;100535.38;;;8.38;39.62
44027;BME280;29696;55.698;37.460;2023-05-10T02:12:42;100529.00;;;8.42;38.95
44027;BME280;29696;55.698;37.460;2023-05-10T02:15:11;100523.91;;;8.39;39.07
44027;BME280;29696;55.698;37.460;2023-05-10T02:17:40;100531.50;;;8.43;38.36
44027;BME280;29696;55.698;37.460;2023-05-10T02:20:09;100527.94;;;8.44;40.97
44027;BME280;29696;55.698;37.460;2023-05-10T02:22:36;100528.88;;;8.43;39.83
44027;BME280;29696;55.698;37.460;2023-05-10T02:25:06;100521.91;;;8.42;38.52
44027;BME280;29696;55.698;37.460;2023-05-10T02:27:33;100522.56;;;8.46;39.24
44027;BME280;29696;55.698;37.460;2023-05-10T02:30:01;100521.91;;;8.42;41.11
44027;BME280;29696;55.698;37.460;2023-05-10T02:32:32;100527.00;;;8.45;38.46
44027;BME280;29696;55.698;37.460;2023-05-10T02:35:01;100526.16;;;8.45;39.17
44027;BME280;29696;55.698;37.460;2023-05-10T02:37:31;100507.06;;;8.41;38.50
44027;BME280;29696;55.698;37.460;2023-05-10T02:39:58;100516.25;;;8.49;39.09
44027;BME280;29696;55.698;37.460;2023-05-10T02:42:27;100519.53;;;8.52;38.05
44027;BME280;29696;55.698;37.460;2023-05-10T02:45:00;100514.75;;;8.59;39.22
44027;BME280;29696;55.698;37.460;2023-05-10T02:47:33;100515.78;;;8.56;38.03
44027;BME280;29696;55.698;37.460;2023-05-10T02:50:00;100517.38;;;8.59;39.54
44027;BME280;29696;55.698;37.460;2023-05-10T02:52:30;100522.25;;;8.65;38.46
44027;BME280;29696;55.698;37.460;2023-05-10T02:55:02;100515.19;;;8.65;38.62
44027;BME280;29696;55.698;37.460;2023-05-10T02:57:34;100519.00;;;8.74;38.69
44027;BME280;29696;55.698;37.460;2023-05-10T03:00:05;100519.09;;;8.73;39.10
44027;BME280;29696;55.698;37.460;2023-05-10T03:02:34;100519.84;;;8.75;39.59
44027;BME280;29696;55.698;37.460;2023-05-10T03:05:00;100513.53;;;8.77;38.85
44027;BME280;29696;55.698;37.460;2023-05-10T03:07:27;100514.72;;;8.86;37.74
44027;BME280;29696;55.698;37.460;2023-05-10T03:09:54;100514.50;;;8.89;37.65
44027;BME280;29696;55.698;37.460;2023-05-10T03:18:43;100509.59;;;9.10;38.37
44027;BME280;29696;55.698;37.460;2023-05-10T03:21:11;100505.16;;;9.10;38.94
44027;BME280;29696;55.698;37.460;2023-05-10T03:23:44;100509.28;;;9.14;39.55
44027;BME280;29696;55.698;37.460;2023-05-10T03:26:28;100517.22;;;9.27;37.97
44027;BME280;29696;55.698;37.460;2023-05-10T03:29:06;100511.28;;;9.24;36.87
44027;BME280;29696;55.698;37.460;2023-05-10T03:31:33;100506.75;;;9.26;38.42
44027;BME280;29696;55.698;37.460;2023-05-10T03:34:00;100510.16;;;9.28;37.39
44027;BME280;29696;55.698;37.460;2023-05-10T03:36:27;100509.72;;;9.34;37.19
44027;BME280;29696;55.698;37.460;2023-05-10T03:38:55;100504.03;;;9.40;36.92
44027;BME280;29696;55.698;37.460;2023-05-10T03:41:21;100512.06;;;9.51;37.29
44027;BME280;29696;55.698;37.460;2023-05-10T03:43:48;100509.84;;;9.58;37.57
44027;BME280;29696;55.698;37.460;2023-05-10T03:46:14;100510.25;;;9.65;38.15
44027;BME280;29696;55.698;37.460;2023-05-10T03:48:41;100510.78;;;9.70;36.80
44027;BME280;29696;55.698;37.460;2023-05-10T03:51:07;100498.09;;;9.75;36.97
44027;BME280;29696;55.698;37.460;2023-05-10T03:53:34;100511.50;;;9.85;37.50
44027;BME280;29696;55.698;37.460;2023-05-10T03:56:00;100509.25;;;9.91;38.21
44027;BME280;29696;55.698;37.460;2023-05-10T03:58:27;100509.88;;;9.95;36.65
44027;BME280;29696;55.698;37.460;2023-05-10T04:00:53;100511.25;;;10.00;36.00
44027;BME280;29696;55.698;37.460;2023-05-10T04:03:20;100502.88;;;10.06;36.54
44027;BME280;29696;55.698;37.460;2023-05-10T04:05:47;100506.16;;;10.10;36.47
44027;BME280;29696;55.698;37.460;2023-05-10T04:08:14;100507.50;;;10.16;36.36
44027;BME280;29696;55.698;37.460;2023-05-10T04:10:43;100500.81;;;10.23;35.88
44027;BME280;29696;55.698;37.460;2023-05-10T04:13:09;100500.44;;;10.29;36.31
44027;BME280;29696;55.698;37.460;2023-05-10T04:15:36;100499.53;;;10.41;37.35
44027;BME280;29696;55.698;37.460;2023-05-10T04:18:02;100495.38;;;10.50;35.83
44027;BME280;29696;55.698;37.460;2023-05-10T04:20:29;100495.66;;;10.58;36.24
44027;BME280;29696;55.698;37.460;2023-05-10T04:22:55;100494.88;;;10.69;36.50
44027;BME280;29696;55.698;37.460;2023-05-10T04:25:21;100483.59;;;10.78;36.42
44027;BME280;29696;55.698;37.460;2023-05-10T04:27:48;100489.66;;;10.91;37.12
44027;BME280;29696;55.698;37.460;2023-05-10T04:30:14;100493.16;;;11.03;36.61
44027;BME280;29696;55.698;37.460;2023-05-10T04:32:41;100479.88;;;11.16;36.19
44027;BME280;29696;55.698;37.460;2023-05-10T04:35:07;100490.22;;;11.30;35.21
44027;BME280;29696;55.698;37.460;2023-05-10T04:37:36;100483.03;;;11.43;34.39
44027;BME280;29696;55.698;37.460;2023-05-10T04:40:02;100490.03;;;11.56;34.41
44027;BME280;29696;55.698;37.460;2023-05-10T04:42:30;100488.56;;;11.63;34.75
44027;BME280;29696;55.698;37.460;2023-05-10T04:44:56;100481.84;;;11.70;34.88
44027;BME280;29696;55.698;37.460;2023-05-10T04:47:23;100479.91;;;11.83;34.44
44027;BME280;29696;55.698;37.460;2023-05-10T04:49:49;100482.94;;;12.01;35.50
44027;BME280;29696;55.698;37.460;2023-05-10T04:52:16;100473.75;;;12.17;33.45
44027;BME280;29696;55.698;37.460;2023-05-10T04:54:44;100481.41;;;12.42;33.63
44027;BME280;29696;55.698;37.460;2023-05-10T04:57:10;100477.31;;;12.70;32.70
44027;BME280;29696;55.698;37.460;2023-05-10T04:59:36;100476.75;;;12.88;32.07
44027;BME280;29696;55.698;37.460;2023-05-10T05:02:04;100471.56;;;13.07;33.47
44027;BME280;29696;55.698;37.460;2023-05-10T05:04:31;100472.47;;;13.29;32.51
44027;BME280;29696;55.698;37.460;2023-05-10T05:06:57;100473.06;;;13.42;31.73
44027;BME280;29696;55.698;37.460;2023-05-10T05:09:24;100468.44;;;13.65;32.72
44027;BME280;29696;55.698;37.460;2023-05-10T05:11:50;100470.19;;;13.85;31.49
44027;BME280;29696;55.698;37.460;2023-05-10T05:14:16;100465.34;;;14.00;30.98
44027;BME280;29696;55.698;37.460;2023-05-10T05:16:43;100477.56;;;14.12;31.09
44027;BME280;29696;55.698;37.460;2023-05-10T05:19:09;100458.56;;;14.46;30.48
44027;BME280;29696;55.698;37.460;2023-05-10T05:21:35;100469.06;;;14.87;30.30
44027;BME280;29696;55.698;37.460;2023-05-10T05:24:02;100464.41;;;15.27;29.23
44027;BME280;29696;55.698;37.460;2023-05-10T05:26:28;100456.81;;;15.80;28.53
44027;BME280;29696;55.698;37.460;2023-05-10T05:28:55;100457.19;;;16.30;27.97
44027;BME280;29696;55.698;37.460;2023-05-10T05:31:21;100454.63;;;16.74;28.00
44027;BME280;29696;55.698;37.460;2023-05-10T05:33:48;100454.91;;;17.07;27.96
44027;BME280;29696;55.698;37.460;2023-05-10T05:36:14;100456.13;;;17.39;27.41
44027;BME280;29696;55.698;37.460;2023-05-10T05:38:41;100449.56;;;17.67;26.58
44027;BME280;29696;55.698;37.460;2023-05-10T05:41:07;100455.09;;;18.00;26.24
44027;BME280;29696;55.698;37.460;2023-05-10T05:43:34;100453.81;;;18.20;26.61
44027;BME280;29696;55.698;37.460;2023-05-10T05:46:00;100449.53;;;18.52;24.39
44027;BME280;29696;55.698;37.460;2023-05-10T05:48:27;100442.72;;;18.74;24.49
44027;BME280;29696;55.698;37.460;2023-05-10T05:50:55;100443.84;;;18.96;24.55
44027;BME280;29696;55.698;37.460;2023-05-10T05:53:25;100433.81;;;19.14;23.83
44027;BME280;29696;55.698;37.460;2023-05-10T05:55:53;100446.00;;;19.33;23.53
44027;BME280;29696;55.698;37.460;2023-05-10T05:58:21;100436.91;;;19.43;23.64
44027;BME280;29696;55.698;37.460;2023-05-10T06:00:47;100440.44;;;19.43;23.08
44027;BME280;29696;55.698;37.460;2023-05-10T06:03:14;100434.25;;;19.43;23.32
44027;BME280;29696;55.698;37.460;2023-05-10T06:05:40;100428.75;;;19.36;23.70
44027;BME280;29696;55.698;37.460;2023-05-10T06:08:07;100424.22;;;19.28;22.65
44027;BME280;29696;55.698;37.460;2023-05-10T06:10:33;100418.88;;;19.20;22.77
44027;BME280;29696;55.698;37.460;2023-05-10T06:12:59;100434.47;;;19.08;22.89
44027;BME280;29696;55.698;37.460;2023-05-10T06:15:26;100428.81;;;18.95;24.02
44027;BME280;29696;55.698;37.460;2023-05-10T06:17:53;100436.19;;;18.85;23.54
44027;BME280;29696;55.698;37.460;2023-05-10T06:20:19;100430.31;;;18.81;23.54
44027;BME280;29696;55.698;37.460;2023-05-10T06:22:46;100432.13;;;18.64;23.33
44027;BME280;29696;55.698;37.460;2023-05-10T06:25:12;100432.81;;;18.58;23.48
44027;BME280;29696;55.698;37.460;2023-05-10T06:27:40;100431.78;;;18.59;23.04
44027;BME280;29696;55.698;37.460;2023-05-10T06:30:07;100432.44;;;18.69;24.41
44027;BME280;29696;55.698;37.460;2023-05-10T06:32:35;100426.78;;;18.73;23.62
44027;BME280;29696;55.698;37.460;2023-05-10T06:35:01;100428.31;;;18.83;23.46
44027;BME280;29696;55.698;37.460;2023-05-10T06:37:30;100423.63;;;18.93;23.39
44027;BME280;29696;55.698;37.460;2023-05-10T06:39:56;100421.94;;;19.09;22.42
44027;BME280;29696;55.698;37.460;2023-05-10T06:42:23;100416.06;;;19.05;22.36
44027;BME280;29696;55.698;37.460;2023-05-10T06:44:51;100419.94;;;19.03;22.15
44027;BME280;29696;55.698;37.460;2023-05-10T06:47:18;100420.25;;;19.08;23.61
44027;BME280;29696;55.698;37.460;2023-05-10T06:49:44;100415.69;;;19.16;22.98
44027;BME280;29696;55.698;37.460;2023-05-10T06:52:11;100415.50;;;19.26;22.22
44027;BME280;29696;55.698;37.460;2023-05-10T06:54:37;100420.09;;;19.09;20.76
44027;BME280;29696;55.698;37.460;2023-05-10T06:57:03;100412.69;;;19.11;22.74
44027;BME280;29696;55.698;37.460;2023-05-10T06:59:30;100414.88;;;19.24;22.21
44027;BME280;29696;55.698;37.460;2023-05-10T07:01:57;100413.81;;;19.42;22.49
44027;BME280;29696;55.698;37.460;2023-05-10T07:04:23;100416.53;;;19.81;22.00
44027;BME280;29696;55.698;37.460;2023-05-10T07:06:49;100416.56;;;20.04;21.68
44027;BME280;29696;55.698;37.460;2023-05-10T07:09:16;100409.63;;;20.18;20.72
44027;BME280;29696;55.698;37.460;2023-05-10T07:11:42;100412.84;;;20.36;20.08
44027;BME280;29696;55.698;37.460;2023-05-10T07:14:09;100414.09;;;20.71;20.10
44027;BME280;29696;55.698;37.460;2023-05-10T07:16:35;100406.78;;;21.03;19.98
44027;BME280;29696;55.698;37.460;2023-05-10T07:19:02;100397.06;;;21.47;20.43
44027;BME280;29696;55.698;37.460;2023-05-10T07:21:28;100391.44;;;21.93;20.27
44027;BME280;29696;55.698;37.460;2023-05-10T07:23:54;100394.25;;;22.42;18.80
44027;BME280;29696;55.698;37.460;2023-05-10T07:26:21;100394.16;;;22.78;18.42
44027;BME280;29696;55.698;37.460;2023-05-10T07:28:48;100388.19;;;23.39;18.26
44027;BME280;29696;55.698;37.460;2023-05-10T07:31:14;100382.22;;;24.05;16.15
44027;BME280;29696;55.698;37.460;2023-05-10T07:33:40;100382.28;;;24.38;15.52
44027;BME280;29696;55.698;37.460;2023-05-10T07:36:07;100381.28;;;24.59;15.73
44027;BME280;29696;55.698;37.460;2023-05-10T07:38:33;100380.03;;;24.69;15.82
44027;BME280;29696;55.698;37.460;2023-05-10T07:41:00;100376.91;;;24.72;15.69
44027;BME280;29696;55.698;37.460;2023-05-10T07:43:26;100387.72;;;24.85;15.03
44027;BME280;29696;55.698;37.460;2023-05-10T07:45:52;100386.25;;;25.02;15.08
44027;BME280;29696;55.698;37.460;2023-05-10T07:48:19;100379.41;;;25.13;15.55
44027;BME280;29696;55.698;37.460;2023-05-10T07:50:45;100380.00;;;25.15;16.28
44027;BME280;29696;55.698;37.460;2023-05-10T07:53:12;100383.91;;;25.33;16.26
44027;BME280;29696;55.698;37.460;2023-05-10T07:55:38;100376.25;;;25.74;15.61
44027;BME280;29696;55.698;37.460;2023-05-10T07:58:05;100388.25;;;25.99;14.38
44027;BME280;29696;55.698;37.460;2023-05-10T08:00:31;100379.44;;;26.10;15.32
44027;BME280;29696;55.698;37.460;2023-05-10T08:02:57;100374.94;;;25.97;15.28
44027;BME280;29696;55.698;37.460;2023-05-10T08:05:24;100375.69;;;26.11;15.02
44027;BME280;29696;55.698;37.460;2023-05-10T08:07:50;100370.25;;;26.17;15.24
44027;BME280;29696;55.698;37.460;2023-05-10T08:10:17;100363.28;;;26.60;14.54
44027;BME280;29696;55.698;37.460;2023-05-10T08:12:43;100364.38;;;27.21;14.39
44027;BME280;29696;55.698;37.460;2023-05-10T08:15:10;100362.59;;;27.63;14.58
44027;BME280;29696;55.698;37.460;2023-05-10T08:17:36;100360.50;;;27.84;14.63
44027;BME280;29696;55.698;37.460;2023-05-10T08:20:03;100356.50;;;27.68;15.41
44027;BME280;29696;55.698;37.460;2023-05-10T08:22:30;100346.91;;;27.35;14.72
44027;BME280;29696;55.698;37.460;2023-05-10T08:24:57;100352.34;;;27.10;13.93
44027;BME280;29696;55.698;37.460;2023-05-10T08:27:23;100349.41;;;26.93;15.07
44027;BME280;29696;55.698;37.460;2023-05-10T08:29:49;100349.78;;;26.47;14.80
44027;BME280;29696;55.698;37.460;2023-05-10T08:32:16;100350.78;;;25.95;14.33
44027;BME280;29696;55.698;37.460;2023-05-10T08:34:43;100347.94;;;25.32;15.71
44027;BME280;29696;55.698;37.460;2023-05-10T08:37:09;100340.50;;;24.88;16.73
44027;BME280;29696;55.698;37.460;2023-05-10T08:39:39;100346.56;;;24.50;17.97
44027;BME280;29696;55.698;37.460;2023-05-10T08:42:06;100351.81;;;23.77;16.75
44027;BME280;29696;55.698;37.460;2023-05-10T08:44:35;100349.34;;;22.49;15.96
44027;BME280;29696;55.698;37.460;2023-05-10T08:47:05;100349.88;;;21.44;17.70
44027;BME280;29696;55.698;37.460;2023-05-10T08:49:33;100348.38;;;20.44;19.22
44027;BME280;29696;55.698;37.460;2023-05-10T08:52:03;100341.00;;;19.92;19.12
44027;BME280;29696;55.698;37.460;2023-05-10T08:54:32;100346.72;;;19.19;20.10
44027;BME280;29696;55.698;37.460;2023-05-10T08:56:59;100344.63;;;18.81;20.95
44027;BME280;29696;55.698;37.460;2023-05-10T08:59:26;100339.47;;;18.55;20.17
44027;BME280;29696;55.698;37.460;2023-05-10T09:01:53;100338.63;;;18.22;20.71
44027;BME280;29696;55.698;37.460;2023-05-10T09:04:22;100345.28;;;18.10;21.48
44027;BME280;29696;55.698;37.460;2023-05-10T09:06:49;100338.09;;;18.02;21.03
44027;BME280;29696;55.698;37.460;2023-05-10T09:09:16;100344.91;;;17.88;19.50
44027;BME280;29696;55.698;37.460;2023-05-10T09:11:44;100332.31;;;17.56;20.74
44027;BME280;29696;55.698;37.460;2023-05-10T09:14:12;100326.19;;;17.38;20.86
44027;BME280;29696;55.698;37.460;2023-05-10T09:16:40;100333.56;;;17.44;21.11
44027;BME280;29696;55.698;37.460;2023-05-10T09:19:07;100327.53;;;17.84;21.18
44027;BME280;29696;55.698;37.460;2023-05-10T09:21:37;100330.28;;;18.25;20.45
44027;BME280;29696;55.698;37.460;2023-05-10T09:24:05;100313.72;;;18.46;20.27
44027;BME280;29696;55.698;37.460;2023-05-10T09:26:32;100309.81;;;18.81;21.15
44027;BME280;29696;55.698;37.460;2023-05-10T09:29:00;100315.19;;;19.29;20.43
44027;BME280;29696;55.698;37.460;2023-05-10T09:31:46;100313.97;;;19.79;18.96
44027;BME280;29696;55.698;37.460;2023-05-10T09:34:22;100313.53;;;19.67;18.65
44027;BME280;29696;55.698;37.460;2023-05-10T09:37:06;100311.16;;;19.72;18.59
44027;BME280;29696;55.698;37.460;2023-05-10T09:39:36;100305.03;;;19.16;18.55
44027;BME280;29696;55.698;37.460;2023-05-10T09:42:08;100307.56;;;19.18;19.31
44027;BME280;29696;55.698;37.460;2023-05-10T09:44:35;100303.28;;;18.92;19.45
44027;BME280;29696;55.698;37.460;2023-05-10T09:47:03;100291.75;;;18.83;19.91
44027;BME280;29696;55.698;37.460;2023-05-10T09:49:30;100289.22;;;18.90;19.69
44027;BME280;29696;55.698;37.460;2023-05-10T09:52:05;100292.13;;;19.20;19.37
44027;BME280;29696;55.698;37.460;2023-05-10T09:54:32;100282.00;;;18.99;19.60
44027;BME280;29696;55.698;37.460;2023-05-10T09:57:00;100276.41;;;19.16;20.08
44027;BME280;29696;55.698;37.460;2023-05-10T09:59:27;100273.72;;;19.16;19.98
44027;BME280;29696;55.698;37.460;2023-05-10T10:01:59;100282.53;;;19.33;19.51
44027;BME280;29696;55.698;37.460;2023-05-10T10:04:26;100273.72;;;19.16;19.91
44027;BME280;29696;55.698;37.460;2023-05-10T10:07:00;100267.97;;;19.28;19.55
44027;BME280;29696;55.698;37.460;2023-05-10T10:09:28;100264.19;;;19.14;19.90
44027;BME280;29696;55.698;37.460;2023-05-10T10:11:55;100266.59;;;19.32;20.90
44027;BME280;29696;55.698;37.460;2023-05-10T10:14:23;100264.84;;;19.47;20.74
44027;BME280;29696;55.698;37.460;2023-05-10T10:16:50;100258.50;;;19.48;20.28
44027;BME280;29696;55.698;37.460;2023-05-10T10:19:20;100262.78;;;19.66;20.12
44027;BME280;29696;55.698;37.460;2023-05-10T10:21:49;100269.59;;;19.68;19.55
44027;BME280;29696;55.698;37.460;2023-05-10T10:24:16;100255.38;;;19.68;19.22
44027;BME280;29696;55.698;37.460;2023-05-10T10:26:43;100261.56;;;19.68;19.36
44027;BME280;29696;55.698;37.460;2023-05-10T10:29:41;100263.38;;;19.99;19.22
44027;BME280;29696;55.698;37.460;2023-05-10T10:32:27;100258.84;;;19.76;19.74
44027;BME280;29696;55.698;37.460;2023-05-10T10:34:55;100253.22;;;19.32;19.47
44027;BME280;29696;55.698;37.460;2023-05-10T10:37:22;100246.22;;;19.23;19.76
44027;BME280;29696;55.698;37.460;2023-05-10T10:39:49;100247.28;;;19.13;19.80
44027;BME280;29696;55.698;37.460;2023-05-10T10:42:45;100245.81;;;19.42;19.90
44027;BME280;29696;55.698;37.460;2023-05-10T10:45:16;100246.59;;;19.11;20.00
44027;BME280;29696;55.698;37.460;2023-05-10T10:47:43;100233.88;;;19.13;20.09
44027;BME280;29696;55.698;37.460;2023-05-10T10:50:11;100233.66;;;19.23;20.38
44027;BME280;29696;55.698;37.460;2023-05-10T10:52:45;100242.94;;;19.44;21.37
44027;BME280;29696;55.698;37.460;2023-05-10T10:55:32;100239.22;;;19.76;20.75
44027;BME280;29696;55.698;37.460;2023-05-10T10:57:58;100233.91;;;19.45;20.85
44027;BME280;29696;55.698;37.460;2023-05-10T11:00:31;100237.41;;;19.45;22.19
44027;BME280;29696;55.698;37.460;2023-05-10T11:03:19;100240.06;;;19.76;20.65
44027;BME280;29696;55.698;37.460;2023-05-10T11:05:48;100230.06;;;19.39;20.77
44027;BME280;29696;55.698;37.460;2023-05-10T11:08:44;100229.75;;;19.65;21.35
44027;BME280;29696;55.698;37.460;2023-05-10T11:11:14;100224.94;;;19.52;22.02
44027;BME280;29696;55.698;37.460;2023-05-10T11:13:45;100228.66;;;19.51;21.54
44027;BME280;29696;55.698;37.460;2023-05-10T11:16:24;100224.63;;;19.47;22.28
44027;BME280;29696;55.698;37.460;2023-05-10T11:22:11;100218.41;;;19.55;20.30
44027;BME280;29696;55.698;37.460;2023-05-10T11:24:39;100211.25;;;19.24;21.36
44027;BME280;29696;55.698;37.460;2023-05-10T11:27:06;100199.03;;;19.22;20.47
44027;BME280;29696;55.698;37.460;2023-05-10T11:29:32;100210.09;;;19.19;20.48
44027;BME280;29696;55.698;37.460;2023-05-10T11:31:59;100204.72;;;19.19;21.17
44027;BME280;29696;55.698;37.460;2023-05-10T11:34:30;100206.66;;;19.33;21.75
44027;BME280;29696;55.698;37.460;2023-05-10T11:36:57;100206.25;;;19.13;21.66
44027;BME280;29696;55.698;37.460;2023-05-10T11:39:28;100200.69;;;19.23;21.86
44027;BME280;29696;55.698;37.460;2023-05-10T11:41:55;100197.13;;;18.99;21.13
44027;BME280;29696;55.698;37.460;2023-05-10T11:44:22;100196.38;;;18.82;22.33
44027;BME280;29696;55.698;37.460;2023-05-10T11:46:49;100198.91;;;18.76;21.27
44027;BME280;29696;55.698;37.460;2023-05-10T11:49:15;100189.88;;;18.60;21.45
44027;BME280;29696;55.698;37.460;2023-05-10T11:51:42;100188.78;;;18.38;21.45
44027;BME280;29696;55.698;37.460;2023-05-10T11:54:10;100195.31;;;18.36;22.48
44027;BME280;29696;55.698;37.460;2023-05-10T11:56:40;100186.78;;;18.32;22.43
44027;BME280;29696;55.698;37.460;2023-05-10T11:59:07;100184.03;;;18.01;22.13
44027;BME280;29696;55.698;37.460;2023-05-10T12:01:34;100188.53;;;17.92;22.56
44027;BME280;29696;55.698;37.460;2023-05-10T12:04:01;100186.69;;;17.85;22.54
44027;BME280;29696;55.698;37.460;2023-05-10T12:06:30;100186.34;;;17.88;22.32
44027;BME280;29696;55.698;37.460;2023-05-10T12:08:58;100174.31;;;17.92;22.69
44027;BME280;29696;55.698;37.460;2023-05-10T12:11:25;100178.81;;;17.99;22.14
44027;BME280;29696;55.698;37.460;2023-05-10T12:13:52;100168.28;;;18.06;22.63
44027;BME280;29696;55.698;37.460;2023-05-10T12:16:21;100180.66;;;18.07;22.04
44027;BME280;29696;55.698;37.460;2023-05-10T12:18:48;100170.47;;;18.11;22.66
44027;BME280;29696;55.698;37.460;2023-05-10T12:21:17;100175.47;;;18.14;22.68
44027;BME280;29696;55.698;37.460;2023-05-10T12:23:46;100161.56;;;18.27;22.47
44027;BME280;29696;55.698;37.460;2023-05-10T12:26:13;100164.91;;;18.37;22.49
44027;BME280;29696;55.698;37.460;2023-05-10T12:28:39;100157.31;;;18.48;23.09
44027;BME280;29696;55.698;37.460;2023-05-10T12:31:06;100159.75;;;18.66;22.70
44027;BME280;29696;55.698;37.460;2023-05-10T12:33:41;100164.03;;;18.92;22.39
44027;BME280;29696;55.698;37.460;2023-05-10T12:36:10;100155.88;;;18.85;22.26
44027;BME280;29696;55.698;37.460;2023-05-10T12:39:01;100157.38;;;19.11;21.62
44027;BME280;29696;55.698;37.460;2023-05-10T12:41:28;100149.56;;;18.70;21.87
44027;BME280;29696;55.698;37.460;2023-05-10T12:43:55;100153.28;;;18.53;22.30
44027;BME280;29696;55.698;37.460;2023-05-10T12:46:21;100144.59;;;18.51;22.29
44027;BME280;29696;55.698;37.460;2023-05-10T12:48:51;100149.94;;;18.51;22.25
44027;BME280;29696;55.698;37.460;2023-05-10T12:51:21;100153.16;;;18.46;22.14
44027;BME280;29696;55.698;37.460;2023-05-10T12:53:48;100150.78;;;18.51;22.80
44027;BME280;29696;55.698;37.460;2023-05-10T12:56:15;100152.47;;;18.52;22.81
44027;BME280;29696;55.698;37.460;2023-05-10T12:58:41;100151.13;;;18.48;22.32
44027;BME280;29696;55.698;37.460;2023-05-10T13:01:07;100150.16;;;18.41;23.98
44027;BME280;29696;55.698;37.460;2023-05-10T13:03:34;100148.19;;;18.27;22.63
44027;BME280;29696;55.698;37.460;2023-05-10T13:06:01;100150.88;;;18.18;23.11
44027;BME280;29696;55.698;37.460;2023-05-10T13:08:27;100141.88;;;18.03;22.60
44027;BME280;29696;55.698;37.460;2023-05-10T13:10:55;100146.94;;;17.82;23.25
44027;BME280;29696;55.698;37.460;2023-05-10T13:13:22;100141.25;;;17.68;23.76